sensor_id;sensor_type;location;lat;lon;timestamp;P1;durP1;ratioP1;P2;durP2;ratioP2
24157;SDS011;12316;50.904;4.200;2023-03-31T00:01:29;15.20;;;2.75;;
24157;SDS011;12316;50.904;4.200;2023-03-31T00:03:57;18.67;;;3.10;;
24157;SDS011;12316;50.904;4.200;2023-03-31T00:06:30;12.40;;;2.47;;
24157;SDS011;12316;50.904;4.200;2023-03-31T00:09:06;16.65;;;2.60;;
24157;SDS011;12316;50.904;4.200;2023-03-31T00:11:34;22.38;;;3.33;;
24157;SDS011;12316;50.904;4.200;2023-03-31T00:14:00;20.55;;;2.92;;
24157;SDS011;12316;50.904;4.200;2023-03-31T00:16:26;15.35;;;3.10;;
24157;SDS011;12316;50.904;4.200;2023-03-31T00:18:52;16.30;;;3.05;;
24157;SDS011;12316;50.904;4.200;2023-03-31T00:21:19;16.48;;;2.83;;
24157;SDS011;12316;50.904;4.200;2023-03-31T00:23:50;16.92;;;3.13;;
24157;SDS011;12316;50.904;4.200;2023-03-31T00:26:23;18.02;;;2.90;;
24157;SDS011;12316;50.904;4.200;2023-03-31T00:28:50;13.93;;;2.63;;
24157;SDS011;12316;50.904;4.200;2023-03-31T00:31:16;16.10;;;2.90;;
24157;SDS011;12316;50.904;4.200;2023-03-31T00:33:43;14.85;;;2.65;;
24157;SDS011;12316;50.904;4.200;2023-03-31T00:36:08;17.88;;;2.50;;
24157;SDS011;12316;50.904;4.200;2023-03-31T00:38:34;11.77;;;2.33;;
24157;SDS011;12316;50.904;4.200;2023-03-31T00:41:00;18.73;;;2.72;;
24157;SDS011;12316;50.904;4.200;2023-03-31T00:43:34;19.52;;;2.92;;
24157;SDS011;12316;50.904;4.200;2023-03-31T00:49:02;13.65;;;2.83;;
24157;SDS011;12316;50.904;4.200;2023-03-31T00:51:28;18.17;;;2.88;;
24157;SDS011;12316;50.904;4.200;2023-03-31T00:53:59;17.20;;;2.53;;
24157;SDS011;12316;50.904;4.200;2023-03-31T00:56:30;13.95;;;2.45;;
24157;SDS011;12316;50.904;4.200;2023-03-31T00:59:01;13.15;;;2.65;;
24157;SDS011;12316;50.904;4.200;2023-03-31T01:01:31;11.63;;;2.17;;
24157;SDS011;12316;50.904;4.200;2023-03-31T01:03:59;14.23;;;2.38;;
24157;SDS011;12316;50.904;4.200;2023-03-31T01:06:26;13.63;;;2.47;;
24157;SDS011;12316;50.904;4.200;2023-03-31T01:08:55;19.02;;;2.42;;
24157;SDS011;12316;50.904;4.200;2023-03-31T01:11:22;14.35;;;2.72;;
24157;SDS011;12316;50.904;4.200;2023-03-31T01:13:51;15.15;;;2.67;;
24157;SDS011;12316;50.904;4.200;2023-03-31T01:16:20;16.60;;;2.50;;
24157;SDS011;12316;50.904;4.200;2023-03-31T01:18:46;15.50;;;2.85;;
24157;SDS011;12316;50.904;4.200;2023-03-31T01:43:11;14.63;;;3.42;;
24157;SDS011;12316;50.904;4.200;2023-03-31T01:45:47;12.38;;;3.90;;
24157;SDS011;12316;50.904;4.200;2023-03-31T01:48:48;17.15;;;4.82;;
24157;SDS011;12316;50.904;4.200;2023-03-31T01:56:45;12.63;;;3.85;;
24157;SDS011;12316;50.904;4.200;2023-03-31T02:01:48;15.93;;;2.90;;
24157;SDS011;12316;50.904;4.200;2023-03-31T02:04:28;15.75;;;2.75;;
24157;SDS011;12316;50.904;4.200;2023-03-31T02:07:06;10.63;;;2.20;;
24157;SDS011;12316;50.904;4.200;2023-03-31T02:09:39;13.55;;;2.22;;
24157;SDS011;12316;50.904;4.200;2023-03-31T02:12:09;13.45;;;2.35;;
24157;SDS011;12316;50.904;4.200;2023-03-31T02:14:37;9.98;;;2.10;;
24157;SDS011;12316;50.904;4.200;2023-03-31T02:17:07;13.43;;;1.98;;
24157;SDS011;12316;50.904;4.200;2023-03-31T02:19:42;10.55;;;1.83;;
24157;SDS011;12316;50.904;4.200;2023-03-31T02:22:10;11.65;;;2.40;;
24157;SDS011;12316;50.904;4.200;2023-03-31T02:24:38;8.65;;;2.13;;
24157;SDS011;12316;50.904;4.200;2023-03-31T02:29:37;10.57;;;1.80;;
24157;SDS011;12316;50.904;4.200;2023-03-31T02:34:38;9.82;;;2.33;;
24157;SDS011;12316;50.904;4.200;2023-03-31T02:37:04;10.77;;;2.00;;
24157;SDS011;12316;50.904;4.200;2023-03-31T02:39:32;7.55;;;1.83;;
24157;SDS011;12316;50.904;4.200;2023-03-31T02:42:01;12.27;;;2.10;;
24157;SDS011;12316;50.904;4.200;2023-03-31T02:44:40;13.20;;;2.10;;
24157;SDS011;12316;50.904;4.200;2023-03-31T02:47:06;10.10;;;2.13;;
24157;SDS011;12316;50.904;4.200;2023-03-31T02:49:34;9.98;;;2.03;;
24157;SDS011;12316;50.904;4.200;2023-03-31T03:08:18;10.50;;;2.00;;
24157;SDS011;12316;50.904;4.200;2023-03-31T03:13:51;12.85;;;1.90;;
24157;SDS011;12316;50.904;4.200;2023-03-31T03:16:35;9.65;;;2.30;;
24157;SDS011;12316;50.904;4.200;2023-03-31T03:21:33;10.43;;;1.83;;
24157;SDS011;12316;50.904;4.200;2023-03-31T03:23:59;12.27;;;2.55;;
24157;SDS011;12316;50.904;4.200;2023-03-31T03:26:25;15.00;;;2.42;;
24157;SDS011;12316;50.904;4.200;2023-03-31T03:28:53;9.85;;;2.33;;
24157;SDS011;12316;50.904;4.200;2023-03-31T03:31:19;9.32;;;2.42;;
24157;SDS011;12316;50.904;4.200;2023-03-31T03:33:47;8.30;;;2.20;;
24157;SDS011;12316;50.904;4.200;2023-03-31T03:36:16;11.65;;;2.90;;
24157;SDS011;12316;50.904;4.200;2023-03-31T03:38:43;7.22;;;2.25;;
24157;SDS011;12316;50.904;4.200;2023-03-31T03:41:08;9.20;;;2.42;;
24157;SDS011;12316;50.904;4.200;2023-03-31T03:43:34;7.63;;;2.15;;
24157;SDS011;12316;50.904;4.200;2023-03-31T03:46:00;6.45;;;1.90;;
24157;SDS011;12316;50.904;4.200;2023-03-31T03:48:25;5.68;;;1.80;;
24157;SDS011;12316;50.904;4.200;2023-03-31T03:50:51;9.63;;;2.28;;
24157;SDS011;12316;50.904;4.200;2023-03-31T03:53:18;7.93;;;2.22;;
24157;SDS011;12316;50.904;4.200;2023-03-31T03:55:44;10.00;;;2.25;;
24157;SDS011;12316;50.904;4.200;2023-03-31T03:58:12;6.05;;;2.10;;
24157;SDS011;12316;50.904;4.200;2023-03-31T04:00:39;6.93;;;2.15;;
24157;SDS011;12316;50.904;4.200;2023-03-31T04:03:05;5.18;;;1.58;;
24157;SDS011;12316;50.904;4.200;2023-03-31T04:05:31;5.10;;;1.40;;
24157;SDS011;12316;50.904;4.200;2023-03-31T04:07:56;4.05;;;1.05;;
24157;SDS011;12316;50.904;4.200;2023-03-31T04:10:22;4.45;;;0.82;;
24157;SDS011;12316;50.904;4.200;2023-03-31T04:12:48;2.28;;;0.63;;
24157;SDS011;12316;50.904;4.200;2023-03-31T04:15:13;3.83;;;0.60;;
24157;SDS011;12316;50.904;4.200;2023-03-31T04:17:39;1.17;;;0.25;;
24157;SDS011;12316;50.904;4.200;2023-03-31T04:20:06;2.08;;;0.30;;
24157;SDS011;12316;50.904;4.200;2023-03-31T04:22:33;3.15;;;0.40;;
24157;SDS011;12316;50.904;4.200;2023-03-31T04:25:04;2.20;;;0.40;;
24157;SDS011;12316;50.904;4.200;2023-03-31T04:27:40;2.38;;;0.30;;
24157;SDS011;12316;50.904;4.200;2023-03-31T04:30:22;2.10;;;0.60;;
24157;SDS011;12316;50.904;4.200;2023-03-31T04:32:55;1.55;;;0.40;;
24157;SDS011;12316;50.904;4.200;2023-03-31T04:35:23;2.83;;;0.88;;
24157;SDS011;12316;50.904;4.200;2023-03-31T04:37:51;3.20;;;0.80;;
24157;SDS011;12316;50.904;4.200;2023-03-31T04:40:22;4.50;;;0.90;;
24157;SDS011;12316;50.904;4.200;2023-03-31T04:42:49;2.85;;;0.88;;
24157;SDS011;12316;50.904;4.200;2023-03-31T04:45:15;4.68;;;0.93;;
24157;SDS011;12316;50.904;4.200;2023-03-31T04:47:41;6.88;;;1.25;;
24157;SDS011;12316;50.904;4.200;2023-03-31T04:50:07;9.35;;;1.73;;
24157;SDS011;12316;50.904;4.200;2023-03-31T04:52:35;11.43;;;2.20;;
24157;SDS011;12316;50.904;4.200;2023-03-31T04:55:01;11.55;;;2.38;;
24157;SDS011;12316;50.904;4.200;2023-03-31T04:57:27;12.68;;;2.95;;
24157;SDS011;12316;50.904;4.200;2023-03-31T04:59:53;12.50;;;2.78;;
24157;SDS011;12316;50.904;4.200;2023-03-31T05:02:18;14.27;;;3.30;;
24157;SDS011;12316;50.904;4.200;2023-03-31T05:04:50;17.50;;;3.67;;
24157;SDS011;12316;50.904;4.200;2023-03-31T05:07:16;16.35;;;3.45;;
24157;SDS011;12316;50.904;4.200;2023-03-31T05:09:43;18.08;;;3.67;;
24157;SDS011;12316;50.904;4.200;2023-03-31T05:12:09;14.85;;;3.10;;
24157;SDS011;12316;50.904;4.200;2023-03-31T05:14:35;11.52;;;3.22;;
24157;SDS011;12316;50.904;4.200;2023-03-31T05:17:01;15.43;;;3.30;;
24157;SDS011;12316;50.904;4.200;2023-03-31T05:19:26;17.33;;;3.55;;
24157;SDS011;12316;50.904;4.200;2023-03-31T05:21:52;16.77;;;3.08;;
24157;SDS011;12316;50.904;4.200;2023-03-31T05:24:17;19.45;;;3.20;;
24157;SDS011;12316;50.904;4.200;2023-03-31T05:26:43;17.83;;;2.72;;
24157;SDS011;12316;50.904;4.200;2023-03-31T05:29:16;14.82;;;2.65;;
24157;SDS011;12316;50.904;4.200;2023-03-31T05:31:43;16.45;;;2.85;;
24157;SDS011;12316;50.904;4.200;2023-03-31T05:34:08;17.55;;;2.60;;
24157;SDS011;12316;50.904;4.200;2023-03-31T05:36:34;12.88;;;2.70;;
24157;SDS011;12316;50.904;4.200;2023-03-31T05:39:01;12.60;;;2.92;;
24157;SDS011;12316;50.904;4.200;2023-03-31T05:41:27;14.38;;;3.03;;
24157;SDS011;12316;50.904;4.200;2023-03-31T05:43:53;13.05;;;2.85;;
24157;SDS011;12316;50.904;4.200;2023-03-31T05:46:18;17.52;;;3.03;;
24157;SDS011;12316;50.904;4.200;2023-03-31T05:48:44;13.70;;;2.97;;
24157;SDS011;12316;50.904;4.200;2023-03-31T05:51:10;19.23;;;3.25;;
24157;SDS011;12316;50.904;4.200;2023-03-31T05:53:36;13.15;;;2.83;;
24157;SDS011;12316;50.904;4.200;2023-03-31T05:56:02;14.50;;;2.72;;
24157;SDS011;12316;50.904;4.200;2023-03-31T05:58:32;14.50;;;2.38;;
24157;SDS011;12316;50.904;4.200;2023-03-31T06:01:03;16.42;;;3.10;;
24157;SDS011;12316;50.904;4.200;2023-03-31T06:03:34;15.60;;;2.97;;
24157;SDS011;12316;50.904;4.200;2023-03-31T06:06:01;16.58;;;2.97;;
24157;SDS011;12316;50.904;4.200;2023-03-31T06:08:29;16.73;;;3.33;;
24157;SDS011;12316;50.904;4.200;2023-03-31T06:10:55;21.23;;;3.10;;
24157;SDS011;12316;50.904;4.200;2023-03-31T06:13:21;16.10;;;3.55;;
24157;SDS011;12316;50.904;4.200;2023-03-31T06:15:53;13.07;;;2.92;;
24157;SDS011;12316;50.904;4.200;2023-03-31T06:18:23;16.15;;;2.85;;
24157;SDS011;12316;50.904;4.200;2023-03-31T06:20:50;18.40;;;3.50;;
24157;SDS011;12316;50.904;4.200;2023-03-31T06:23:16;14.93;;;3.17;;
24157;SDS011;12316;50.904;4.200;2023-03-31T06:25:42;13.73;;;3.00;;
24157;SDS011;12316;50.904;4.200;2023-03-31T06:28:07;17.35;;;3.05;;
24157;SDS011;12316;50.904;4.200;2023-03-31T06:30:33;14.23;;;3.20;;
24157;SDS011;12316;50.904;4.200;2023-03-31T06:32:59;22.25;;;3.58;;
24157;SDS011;12316;50.904;4.200;2023-03-31T06:35:25;17.48;;;3.22;;
24157;SDS011;12316;50.904;4.200;2023-03-31T06:37:51;12.98;;;3.05;;
24157;SDS011;12316;50.904;4.200;2023-03-31T06:40:16;12.57;;;2.95;;
24157;SDS011;12316;50.904;4.200;2023-03-31T06:42:42;18.45;;;3.67;;
24157;SDS011;12316;50.904;4.200;2023-03-31T06:45:08;19.42;;;3.40;;
24157;SDS011;12316;50.904;4.200;2023-03-31T06:47:34;17.77;;;3.03;;
24157;SDS011;12316;50.904;4.200;2023-03-31T06:50:01;19.42;;;3.40;;
24157;SDS011;12316;50.904;4.200;2023-03-31T06:52:28;16.90;;;3.60;;
24157;SDS011;12316;50.904;4.200;2023-03-31T06:54:53;15.50;;;3.17;;
24157;SDS011;12316;50.904;4.200;2023-03-31T06:57:19;17.02;;;3.22;;
24157;SDS011;12316;50.904;4.200;2023-03-31T06:59:45;17.30;;;3.78;;
24157;SDS011;12316;50.904;4.200;2023-03-31T07:02:10;17.40;;;3.40;;
24157;SDS011;12316;50.904;4.200;2023-03-31T07:04:36;20.77;;;3.72;;
24157;SDS011;12316;50.904;4.200;2023-03-31T07:07:02;27.00;;;3.97;;
24157;SDS011;12316;50.904;4.200;2023-03-31T07:09:27;16.02;;;3.10;;
24157;SDS011;12316;50.904;4.200;2023-03-31T07:11:53;15.70;;;3.55;;
24157;SDS011;12316;50.904;4.200;2023-03-31T07:14:18;19.67;;;3.72;;
24157;SDS011;12316;50.904;4.200;2023-03-31T07:16:44;17.83;;;3.60;;
24157;SDS011;12316;50.904;4.200;2023-03-31T07:19:10;17.83;;;3.33;;
24157;SDS011;12316;50.904;4.200;2023-03-31T07:21:36;19.27;;;3.42;;
24157;SDS011;12316;50.904;4.200;2023-03-31T07:24:02;15.68;;;3.25;;
24157;SDS011;12316;50.904;4.200;2023-03-31T07:26:27;17.73;;;3.58;;
24157;SDS011;12316;50.904;4.200;2023-03-31T07:28:53;18.27;;;3.55;;
24157;SDS011;12316;50.904;4.200;2023-03-31T07:31:21;22.52;;;3.65;;
24157;SDS011;12316;50.904;4.200;2023-03-31T07:33:46;16.23;;;3.33;;
24157;SDS011;12316;50.904;4.200;2023-03-31T07:36:12;18.88;;;3.72;;
24157;SDS011;12316;50.904;4.200;2023-03-31T07:38:39;14.65;;;3.28;;
24157;SDS011;12316;50.904;4.200;2023-03-31T07:41:08;17.35;;;3.17;;
24157;SDS011;12316;50.904;4.200;2023-03-31T07:43:36;20.30;;;3.97;;
24157;SDS011;12316;50.904;4.200;2023-03-31T07:46:02;18.88;;;3.58;;
24157;SDS011;12316;50.904;4.200;2023-03-31T07:48:29;22.02;;;4.43;;
24157;SDS011;12316;50.904;4.200;2023-03-31T07:50:54;16.98;;;3.42;;
24157;SDS011;12316;50.904;4.200;2023-03-31T07:53:20;17.50;;;3.65;;
24157;SDS011;12316;50.904;4.200;2023-03-31T07:55:46;18.42;;;3.42;;
24157;SDS011;12316;50.904;4.200;2023-03-31T07:58:12;15.93;;;3.50;;
24157;SDS011;12316;50.904;4.200;2023-03-31T08:00:38;22.98;;;4.13;;
24157;SDS011;12316;50.904;4.200;2023-03-31T08:03:04;16.13;;;3.47;;
24157;SDS011;12316;50.904;4.200;2023-03-31T08:05:29;25.70;;;3.75;;
24157;SDS011;12316;50.904;4.200;2023-03-31T08:07:55;24.08;;;4.15;;
24157;SDS011;12316;50.904;4.200;2023-03-31T08:10:22;19.73;;;3.47;;
24157;SDS011;12316;50.904;4.200;2023-03-31T08:12:50;19.00;;;3.80;;
24157;SDS011;12316;50.904;4.200;2023-03-31T08:15:16;18.67;;;3.90;;
24157;SDS011;12316;50.904;4.200;2023-03-31T08:17:42;23.00;;;4.00;;
24157;SDS011;12316;50.904;4.200;2023-03-31T08:20:08;23.55;;;4.05;;
24157;SDS011;12316;50.904;4.200;2023-03-31T08:22:37;19.02;;;3.70;;
24157;SDS011;12316;50.904;4.200;2023-03-31T08:25:04;17.02;;;3.42;;
24157;SDS011;12316;50.904;4.200;2023-03-31T08:27:32;17.75;;;3.38;;
24157;SDS011;12316;50.904;4.200;2023-03-31T08:30:02;18.40;;;3.45;;
24157;SDS011;12316;50.904;4.200;2023-03-31T08:32:31;19.58;;;3.40;;
24157;SDS011;12316;50.904;4.200;2023-03-31T08:34:59;21.67;;;3.28;;
24157;SDS011;12316;50.904;4.200;2023-03-31T08:37:24;20.80;;;3.38;;
24157;SDS011;12316;50.904;4.200;2023-03-31T08:39:52;22.83;;;3.70;;
24157;SDS011;12316;50.904;4.200;2023-03-31T08:42:20;23.13;;;3.92;;
24157;SDS011;12316;50.904;4.200;2023-03-31T08:45:05;16.48;;;3.25;;
24157;SDS011;12316;50.904;4.200;2023-03-31T08:47:56;18.08;;;3.67;;
24157;SDS011;12316;50.904;4.200;2023-03-31T08:50:24;22.02;;;3.60;;
24157;SDS011;12316;50.904;4.200;2023-03-31T08:52:58;20.27;;;3.63;;
24157;SDS011;12316;50.904;4.200;2023-03-31T08:55:31;18.33;;;3.63;;
24157;SDS011;12316;50.904;4.200;2023-03-31T09:01:08;18.60;;;3.70;;
24157;SDS011;12316;50.904;4.200;2023-03-31T09:09:51;20.30;;;3.97;;
24157;SDS011;12316;50.904;4.200;2023-03-31T09:12:21;19.45;;;3.35;;
24157;SDS011;12316;50.904;4.200;2023-03-31T09:14:56;21.77;;;3.58;;
24157;SDS011;12316;50.904;4.200;2023-03-31T09:17:28;19.83;;;3.47;;
24157;SDS011;12316;50.904;4.200;2023-03-31T09:19:58;20.48;;;4.15;;
24157;SDS011;12316;50.904;4.200;2023-03-31T09:22:38;21.77;;;3.80;;
24157;SDS011;12316;50.904;4.200;2023-03-31T09:25:11;26.02;;;4.43;;
24157;SDS011;12316;50.904;4.200;2023-03-31T09:28:08;24.95;;;4.70;;
24157;SDS011;12316;50.904;4.200;2023-03-31T09:30:42;22.05;;;3.80;;
24157;SDS011;12316;50.904;4.200;2023-03-31T09:33:18;23.63;;;4.25;;
24157;SDS011;12316;50.904;4.200;2023-03-31T09:35:58;22.25;;;3.95;;
24157;SDS011;12316;50.904;4.200;2023-03-31T09:38:25;27.05;;;4.75;;
24157;SDS011;12316;50.904;4.200;2023-03-31T09:40:58;17.00;;;4.10;;
24157;SDS011;12316;50.904;4.200;2023-03-31T09:43:27;32.85;;;4.38;;
24157;SDS011;12316;50.904;4.200;2023-03-31T09:45:54;19.80;;;4.15;;
24157;SDS011;12316;50.904;4.200;2023-03-31T09:48:21;19.58;;;3.97;;
24157;SDS011;12316;50.904;4.200;2023-03-31T09:50:56;24.10;;;4.07;;
24157;SDS011;12316;50.904;4.200;2023-03-31T09:56:10;25.75;;;4.40;;
24157;SDS011;12316;50.904;4.200;2023-03-31T09:58:39;24.38;;;4.25;;
24157;SDS011;12316;50.904;4.200;2023-03-31T10:01:06;22.77;;;4.55;;
24157;SDS011;12316;50.904;4.200;2023-03-31T10:03:40;24.23;;;4.43;;
24157;SDS011;12316;50.904;4.200;2023-03-31T10:06:16;28.15;;;4.78;;
24157;SDS011;12316;50.904;4.200;2023-03-31T10:09:03;23.27;;;4.35;;
24157;SDS011;12316;50.904;4.200;2023-03-31T10:11:29;26.88;;;4.32;;
24157;SDS011;12316;50.904;4.200;2023-03-31T10:13:59;21.45;;;4.20;;
24157;SDS011;12316;50.904;4.200;2023-03-31T10:16:47;23.40;;;4.50;;
24157;SDS011;12316;50.904;4.200;2023-03-31T10:19:26;19.08;;;3.92;;
24157;SDS011;12316;50.904;4.200;2023-03-31T10:21:54;22.25;;;4.00;;
24157;SDS011;12316;50.904;4.200;2023-03-31T10:24:25;20.50;;;3.85;;
24157;SDS011;12316;50.904;4.200;2023-03-31T10:26:59;20.60;;;3.85;;
24157;SDS011;12316;50.904;4.200;2023-03-31T10:29:28;21.55;;;4.15;;
24157;SDS011;12316;50.904;4.200;2023-03-31T10:32:00;25.45;;;3.97;;
24157;SDS011;12316;50.904;4.200;2023-03-31T10:34:34;20.83;;;4.38;;
24157;SDS011;12316;50.904;4.200;2023-03-31T10:37:05;23.27;;;4.22;;
24157;SDS011;12316;50.904;4.200;2023-03-31T10:39:31;23.15;;;4.35;;
24157;SDS011;12316;50.904;4.200;2023-03-31T10:41:57;26.85;;;4.10;;
24157;SDS011;12316;50.904;4.200;2023-03-31T10:44:37;20.30;;;3.38;;
24157;SDS011;12316;50.904;4.200;2023-03-31T10:47:04;20.13;;;3.60;;
24157;SDS011;12316;50.904;4.200;2023-03-31T10:49:54;22.67;;;4.47;;
24157;SDS011;12316;50.904;4.200;2023-03-31T10:52:22;21.05;;;3.80;;
24157;SDS011;12316;50.904;4.200;2023-03-31T10:54:56;22.30;;;3.55;;
24157;SDS011;12316;50.904;4.200;2023-03-31T10:57:26;16.52;;;3.35;;
24157;SDS011;12316;50.904;4.200;2023-03-31T11:03:02;18.05;;;3.40;;
24157;SDS011;12316;50.904;4.200;2023-03-31T11:11:15;19.50;;;3.05;;
24157;SDS011;12316;50.904;4.200;2023-03-31T11:14:08;16.27;;;3.15;;
24157;SDS011;12316;50.904;4.200;2023-03-31T11:16:45;14.43;;;3.33;;
24157;SDS011;12316;50.904;4.200;2023-03-31T11:44:11;12.77;;;2.35;;
24157;SDS011;12316;50.904;4.200;2023-03-31T11:46:43;11.82;;;2.80;;
24157;SDS011;12316;50.904;4.200;2023-03-31T11:49:31;13.00;;;2.40;;
24157;SDS011;12316;50.904;4.200;2023-03-31T11:52:07;14.45;;;2.75;;
24157;SDS011;12316;50.904;4.200;2023-03-31T11:54:48;11.88;;;2.90;;
24157;SDS011;12316;50.904;4.200;2023-03-31T11:57:26;20.17;;;2.60;;
24157;SDS011;12316;50.904;4.200;2023-03-31T12:00:17;13.73;;;2.78;;
24157;SDS011;12316;50.904;4.200;2023-03-31T12:05:37;15.18;;;2.63;;
24157;SDS011;12316;50.904;4.200;2023-03-31T12:11:26;12.88;;;2.33;;
24157;SDS011;12316;50.904;4.200;2023-03-31T12:13:39;11.02;;;2.50;;
24157;SDS011;12316;50.904;4.200;2023-03-31T12:16:21;11.20;;;2.45;;
24157;SDS011;12316;50.904;4.200;2023-03-31T12:21:48;13.80;;;2.28;;
24157;SDS011;12316;50.904;4.200;2023-03-31T12:24:17;12.23;;;2.30;;
24157;SDS011;12316;50.904;4.200;2023-03-31T12:32:09;10.93;;;2.00;;
24157;SDS011;12316;50.904;4.200;2023-03-31T12:34:52;10.43;;;2.05;;
24157;SDS011;12316;50.904;4.200;2023-03-31T12:42:50;8.73;;;2.05;;
24157;SDS011;12316;50.904;4.200;2023-03-31T12:45:38;13.73;;;2.50;;
24157;SDS011;12316;50.904;4.200;2023-03-31T12:54:12;7.93;;;1.40;;
24157;SDS011;12316;50.904;4.200;2023-03-31T12:57:01;5.13;;;1.25;;
24157;SDS011;12316;50.904;4.200;2023-03-31T12:59:36;5.80;;;1.60;;
24157;SDS011;12316;50.904;4.200;2023-03-31T13:04:41;5.90;;;1.20;;
24157;SDS011;12316;50.904;4.200;2023-03-31T13:09:58;7.50;;;1.50;;
24157;SDS011;12316;50.904;4.200;2023-03-31T13:13:01;3.25;;;1.10;;
24157;SDS011;12316;50.904;4.200;2023-03-31T13:15:36;4.60;;;1.08;;
24157;SDS011;12316;50.904;4.200;2023-03-31T13:18:02;5.82;;;1.00;;
24157;SDS011;12316;50.904;4.200;2023-03-31T13:20:36;2.83;;;0.95;;
24157;SDS011;12316;50.904;4.200;2023-03-31T13:23:06;3.75;;;1.13;;
24157;SDS011;12316;50.904;4.200;2023-03-31T13:25:50;4.57;;;1.00;;
24157;SDS011;12316;50.904;4.200;2023-03-31T13:36:21;4.35;;;1.40;;
24157;SDS011;12316;50.904;4.200;2023-03-31T13:56:54;1.13;;;0.50;;
24157;SDS011;12316;50.904;4.200;2023-03-31T14:07:58;1.75;;;0.50;;
24157;SDS011;12316;50.904;4.200;2023-03-31T14:10:33;1.77;;;0.70;;
24157;SDS011;12316;50.904;4.200;2023-03-31T14:15:59;3.35;;;1.15;;
24157;SDS011;12316;50.904;4.200;2023-03-31T14:18:26;2.47;;;0.70;;
24157;SDS011;12316;50.904;4.200;2023-03-31T14:23:29;1.45;;;0.50;;
24157;SDS011;12316;50.904;4.200;2023-03-31T14:28:46;2.20;;;0.60;;
24157;SDS011;12316;50.904;4.200;2023-03-31T14:37:21;1.85;;;0.50;;
24157;SDS011;12316;50.904;4.200;2023-03-31T14:39:49;1.98;;;0.50;;
24157;SDS011;12316;50.904;4.200;2023-03-31T14:42:18;2.60;;;0.55;;
24157;SDS011;12316;50.904;4.200;2023-03-31T14:44:47;0.98;;;0.40;;
24157;SDS011;12316;50.904;4.200;2023-03-31T14:47:20;2.38;;;0.80;;
24157;SDS011;12316;50.904;4.200;2023-03-31T14:49:47;2.90;;;0.65;;
24157;SDS011;12316;50.904;4.200;2023-03-31T14:52:31;1.30;;;0.40;;
24157;SDS011;12316;50.904;4.200;2023-03-31T14:54:58;0.95;;;0.40;;
24157;SDS011;12316;50.904;4.200;2023-03-31T14:57:26;2.38;;;0.60;;
24157;SDS011;12316;50.904;4.200;2023-03-31T14:59:59;3.42;;;0.52;;
24157;SDS011;12316;50.904;4.200;2023-03-31T15:02:36;1.88;;;0.60;;
24157;SDS011;12316;50.904;4.200;2023-03-31T15:05:12;1.90;;;0.60;;
24157;SDS011;12316;50.904;4.200;2023-03-31T15:07:46;5.30;;;1.17;;
24157;SDS011;12316;50.904;4.200;2023-03-31T15:10:14;2.35;;;0.80;;
24157;SDS011;12316;50.904;4.200;2023-03-31T15:12:44;2.80;;;0.73;;
24157;SDS011;12316;50.904;4.200;2023-03-31T15:15:11;4.55;;;1.30;;
24157;SDS011;12316;50.904;4.200;2023-03-31T15:17:40;3.28;;;1.10;;
24157;SDS011;12316;50.904;4.200;2023-03-31T15:22:54;5.13;;;1.30;;
24157;SDS011;12316;50.904;4.200;2023-03-31T15:25:20;3.40;;;1.10;;
24157;SDS011;12316;50.904;4.200;2023-03-31T15:27:54;7.03;;;1.38;;
24157;SDS011;12316;50.904;4.200;2023-03-31T15:30:23;5.75;;;1.30;;
24157;SDS011;12316;50.904;4.200;2023-03-31T15:32:51;4.20;;;1.35;;
24157;SDS011;12316;50.904;4.200;2023-03-31T15:35:24;6.25;;;1.50;;
24157;SDS011;12316;50.904;4.200;2023-03-31T15:37:55;6.68;;;1.70;;
24157;SDS011;12316;50.904;4.200;2023-03-31T15:40:27;6.05;;;1.30;;
24157;SDS011;12316;50.904;4.200;2023-03-31T15:42:55;3.95;;;1.17;;
24157;SDS011;12316;50.904;4.200;2023-03-31T15:48:17;5.97;;;1.48;;
24157;SDS011;12316;50.904;4.200;2023-03-31T15:50:43;6.10;;;1.52;;
24157;SDS011;12316;50.904;4.200;2023-03-31T15:56:56;6.68;;;1.45;;
24157;SDS011;12316;50.904;4.200;2023-03-31T15:59:04;5.82;;;1.40;;
24157;SDS011;12316;50.904;4.200;2023-03-31T16:01:45;7.63;;;1.65;;
24157;SDS011;12316;50.904;4.200;2023-03-31T16:04:12;6.53;;;1.67;;
24157;SDS011;12316;50.904;4.200;2023-03-31T16:06:44;8.35;;;1.60;;
24157;SDS011;12316;50.904;4.200;2023-03-31T16:11:46;7.57;;;1.80;;
24157;SDS011;12316;50.904;4.200;2023-03-31T16:17:11;8.48;;;1.60;;
24157;SDS011;12316;50.904;4.200;2023-03-31T16:19:54;9.05;;;2.22;;
24157;SDS011;12316;50.904;4.200;2023-03-31T16:22:25;10.63;;;1.90;;
24157;SDS011;12316;50.904;4.200;2023-03-31T16:24:57;11.98;;;2.00;;
24157;SDS011;12316;50.904;4.200;2023-03-31T16:27:22;7.82;;;1.90;;
24157;SDS011;12316;50.904;4.200;2023-03-31T16:29:48;12.98;;;2.22;;
24157;SDS011;12316;50.904;4.200;2023-03-31T16:32:15;11.55;;;2.10;;
24157;SDS011;12316;50.904;4.200;2023-03-31T16:35:01;13.70;;;2.40;;
24157;SDS011;12316;50.904;4.200;2023-03-31T16:37:29;13.60;;;2.75;;
24157;SDS011;12316;50.904;4.200;2023-03-31T16:39:55;13.35;;;2.40;;
24157;SDS011;12316;50.904;4.200;2023-03-31T16:42:21;17.10;;;2.92;;
24157;SDS011;12316;50.904;4.200;2023-03-31T16:44:47;14.50;;;2.45;;
24157;SDS011;12316;50.904;4.200;2023-03-31T16:47:13;12.10;;;2.47;;
24157;SDS011;12316;50.904;4.200;2023-03-31T16:49:39;18.58;;;3.15;;
24157;SDS011;12316;50.904;4.200;2023-03-31T16:52:05;17.27;;;2.65;;
24157;SDS011;12316;50.904;4.200;2023-03-31T16:54:32;17.98;;;2.80;;
24157;SDS011;12316;50.904;4.200;2023-03-31T16:56:58;13.93;;;3.00;;
24157;SDS011;12316;50.904;4.200;2023-03-31T16:59:24;14.52;;;2.83;;
24157;SDS011;12316;50.904;4.200;2023-03-31T17:01:49;14.27;;;3.00;;
24157;SDS011;12316;50.904;4.200;2023-03-31T17:04:16;13.95;;;3.22;;
24157;SDS011;12316;50.904;4.200;2023-03-31T17:06:42;11.25;;;2.55;;
24157;SDS011;12316;50.904;4.200;2023-03-31T17:09:08;10.40;;;2.33;;
24157;SDS011;12316;50.904;4.200;2023-03-31T17:11:34;12.13;;;2.47;;
24157;SDS011;12316;50.904;4.200;2023-03-31T17:14:00;10.48;;;2.15;;
24157;SDS011;12316;50.904;4.200;2023-03-31T17:16:26;11.52;;;2.53;;
24157;SDS011;12316;50.904;4.200;2023-03-31T17:18:52;16.17;;;2.58;;
24157;SDS011;12316;50.904;4.200;2023-03-31T17:21:18;13.50;;;2.72;;
24157;SDS011;12316;50.904;4.200;2023-03-31T17:23:44;14.80;;;2.78;;
24157;SDS011;12316;50.904;4.200;2023-03-31T17:26:11;11.02;;;2.60;;
24157;SDS011;12316;50.904;4.200;2023-03-31T17:28:37;11.38;;;2.80;;
24157;SDS011;12316;50.904;4.200;2023-03-31T17:31:21;13.05;;;3.08;;
24157;SDS011;12316;50.904;4.200;2023-03-31T17:33:48;11.02;;;2.47;;
24157;SDS011;12316;50.904;4.200;2023-03-31T17:36:14;10.13;;;2.53;;
24157;SDS011;12316;50.904;4.200;2023-03-31T17:38:40;13.13;;;2.75;;
24157;SDS011;12316;50.904;4.200;2023-03-31T17:41:07;11.68;;;2.22;;
24157;SDS011;12316;50.904;4.200;2023-03-31T17:43:35;11.52;;;2.30;;
24157;SDS011;12316;50.904;4.200;2023-03-31T17:46:02;13.73;;;2.78;;
24157;SDS011;12316;50.904;4.200;2023-03-31T17:48:30;15.57;;;3.50;;
24157;SDS011;12316;50.904;4.200;2023-03-31T17:51:01;13.93;;;2.60;;
24157;SDS011;12316;50.904;4.200;2023-03-31T17:53:28;15.82;;;2.72;;
24157;SDS011;12316;50.904;4.200;2023-03-31T17:55:54;19.85;;;3.17;;
24157;SDS011;12316;50.904;4.200;2023-03-31T17:58:20;15.13;;;3.30;;
24157;SDS011;12316;50.904;4.200;2023-03-31T18:00:46;14.90;;;3.22;;
24157;SDS011;12316;50.904;4.200;2023-03-31T18:03:12;20.85;;;3.25;;
24157;SDS011;12316;50.904;4.200;2023-03-31T18:05:38;18.00;;;3.17;;
24157;SDS011;12316;50.904;4.200;2023-03-31T18:08:05;22.30;;;3.88;;
24157;SDS011;12316;50.904;4.200;2023-03-31T18:10:31;16.10;;;3.22;;
24157;SDS011;12316;50.904;4.200;2023-03-31T18:12:57;16.63;;;3.45;;